sensor_id;sensor_type;location;lat;lon;timestamp;P1;durP1;ratioP1;P2;durP2;ratioP2
5460;SDS011;2753;49.196;8.286;2023-05-20T00:00:10;4.43;;;1.93;;
5460;SDS011;2753;49.196;8.286;2023-05-20T00:02:36;2.27;;;1.70;;
5460;SDS011;2753;49.196;8.286;2023-05-20T00:05:02;1.90;;;1.70;;
5460;SDS011;2753;49.196;8.286;2023-05-20T00:07:28;3.20;;;2.30;;
5460;SDS011;2753;49.196;8.286;2023-05-20T00:09:54;4.30;;;2.20;;
5460;SDS011;2753;49.196;8.286;2023-05-20T00:12:20;5.80;;;2.10;;
5460;SDS011;2753;49.196;8.286;2023-05-20T00:14:45;4.90;;;1.90;;
5460;SDS011;2753;49.196;8.286;2023-05-20T00:17:11;3.83;;;2.33;;
5460;SDS011;2753;49.196;8.286;2023-05-20T00:19:37;7.33;;;2.37;;
5460;SDS011;2753;49.196;8.286;2023-05-20T00:22:02;3.50;;;2.20;;
5460;SDS011;2753;49.196;8.286;2023-05-20T00:24:28;4.03;;;1.90;;
5460;SDS011;2753;49.196;8.286;2023-05-20T00:26:54;5.10;;;2.00;;
5460;SDS011;2753;49.196;8.286;2023-05-20T00:29:20;3.07;;;1.93;;
5460;SDS011;2753;49.196;8.286;2023-05-20T00:31:46;2.77;;;2.37;;
5460;SDS011;2753;49.196;8.286;2023-05-20T00:34:13;2.60;;;2.10;;
5460;SDS011;2753;49.196;8.286;2023-05-20T00:36:38;3.83;;;2.00;;
5460;SDS011;2753;49.196;8.286;2023-05-20T00:39:04;3.60;;;1.60;;
5460;SDS011;2753;49.196;8.286;2023-05-20T00:41:31;4.17;;;2.10;;
5460;SDS011;2753;49.196;8.286;2023-05-20T00:43:56;5.17;;;2.10;;
5460;SDS011;2753;49.196;8.286;2023-05-20T00:46:23;3.23;;;2.00;;
5460;SDS011;2753;49.196;8.286;2023-05-20T00:48:52;3.13;;;2.60;;
5460;SDS011;2753;49.196;8.286;2023-05-20T00:51:18;5.50;;;2.40;;
5460;SDS011;2753;49.196;8.286;2023-05-20T00:53:45;2.47;;;2.30;;
5460;SDS011;2753;49.196;8.286;2023-05-20T00:56:11;2.83;;;2.10;;
5460;SDS011;2753;49.196;8.286;2023-05-20T00:58:37;2.40;;;1.70;;
5460;SDS011;2753;49.196;8.286;2023-05-20T01:01:04;3.10;;;2.00;;
5460;SDS011;2753;49.196;8.286;2023-05-20T01:03:30;5.43;;;2.10;;
5460;SDS011;2753;49.196;8.286;2023-05-20T01:05:57;4.40;;;2.30;;
5460;SDS011;2753;49.196;8.286;2023-05-20T01:08:23;3.10;;;1.90;;
5460;SDS011;2753;49.196;8.286;2023-05-20T01:11:33;2.87;;;2.40;;
5460;SDS011;2753;49.196;8.286;2023-05-20T01:13:44;2.33;;;1.80;;
5460;SDS011;2753;49.196;8.286;2023-05-20T01:16:11;4.43;;;1.90;;
5460;SDS011;2753;49.196;8.286;2023-05-20T01:18:42;5.67;;;2.20;;
5460;SDS011;2753;49.196;8.286;2023-05-20T01:21:12;2.40;;;2.20;;
5460;SDS011;2753;49.196;8.286;2023-05-20T01:23:40;4.40;;;1.93;;
5460;SDS011;2753;49.196;8.286;2023-05-20T01:26:06;2.57;;;2.10;;
5460;SDS011;2753;49.196;8.286;2023-05-20T01:28:33;2.17;;;1.97;;
5460;SDS011;2753;49.196;8.286;2023-05-20T01:31:01;5.00;;;1.97;;
5460;SDS011;2753;49.196;8.286;2023-05-20T01:33:31;3.60;;;2.20;;
5460;SDS011;2753;49.196;8.286;2023-05-20T01:36:00;2.73;;;2.03;;
5460;SDS011;2753;49.196;8.286;2023-05-20T01:38:26;5.23;;;2.47;;
5460;SDS011;2753;49.196;8.286;2023-05-20T01:40:52;3.17;;;2.03;;
5460;SDS011;2753;49.196;8.286;2023-05-20T01:43:19;7.73;;;2.00;;
5460;SDS011;2753;49.196;8.286;2023-05-20T01:45:45;3.63;;;2.63;;
5460;SDS011;2753;49.196;8.286;2023-05-20T01:48:12;3.37;;;1.93;;
5460;SDS011;2753;49.196;8.286;2023-05-20T01:50:38;2.60;;;2.40;;
5460;SDS011;2753;49.196;8.286;2023-05-20T01:53:05;4.67;;;2.50;;
5460;SDS011;2753;49.196;8.286;2023-05-20T01:55:33;6.20;;;2.50;;
5460;SDS011;2753;49.196;8.286;2023-05-20T01:57:59;5.17;;;2.40;;
5460;SDS011;2753;49.196;8.286;2023-05-20T02:00:25;2.90;;;2.43;;
5460;SDS011;2753;49.196;8.286;2023-05-20T02:02:51;9.93;;;2.47;;
5460;SDS011;2753;49.196;8.286;2023-05-20T02:05:17;4.00;;;2.83;;
5460;SDS011;2753;49.196;8.286;2023-05-20T02:07:42;3.60;;;2.37;;
5460;SDS011;2753;49.196;8.286;2023-05-20T02:10:09;4.57;;;1.83;;
5460;SDS011;2753;49.196;8.286;2023-05-20T02:12:35;5.30;;;2.73;;
5460;SDS011;2753;49.196;8.286;2023-05-20T02:15:01;4.50;;;2.27;;
5460;SDS011;2753;49.196;8.286;2023-05-20T02:17:27;2.17;;;1.97;;
5460;SDS011;2753;49.196;8.286;2023-05-20T02:19:53;10.27;;;2.77;;
5460;SDS011;2753;49.196;8.286;2023-05-20T02:22:20;4.40;;;2.50;;
5460;SDS011;2753;49.196;8.286;2023-05-20T02:24:46;2.37;;;2.17;;
5460;SDS011;2753;49.196;8.286;2023-05-20T02:27:12;2.87;;;2.30;;
5460;SDS011;2753;49.196;8.286;2023-05-20T02:29:38;2.93;;;2.63;;
5460;SDS011;2753;49.196;8.286;2023-05-20T02:32:05;4.03;;;2.60;;
5460;SDS011;2753;49.196;8.286;2023-05-20T02:34:31;4.70;;;2.27;;
5460;SDS011;2753;49.196;8.286;2023-05-20T02:36:57;4.13;;;2.67;;
5460;SDS011;2753;49.196;8.286;2023-05-20T02:39:23;2.47;;;2.27;;
5460;SDS011;2753;49.196;8.286;2023-05-20T02:41:48;4.93;;;2.40;;
5460;SDS011;2753;49.196;8.286;2023-05-20T02:44:14;6.87;;;3.03;;
5460;SDS011;2753;49.196;8.286;2023-05-20T02:46:40;9.90;;;2.60;;
5460;SDS011;2753;49.196;8.286;2023-05-20T02:49:06;3.30;;;2.33;;
5460;SDS011;2753;49.196;8.286;2023-05-20T02:51:32;2.67;;;2.27;;
5460;SDS011;2753;49.196;8.286;2023-05-20T02:53:59;1.77;;;1.67;;
5460;SDS011;2753;49.196;8.286;2023-05-20T02:56:24;4.60;;;2.50;;
5460;SDS011;2753;49.196;8.286;2023-05-20T02:58:51;13.40;;;2.10;;
5460;SDS011;2753;49.196;8.286;2023-05-20T03:01:16;5.50;;;3.30;;
5460;SDS011;2753;49.196;8.286;2023-05-20T03:03:42;5.70;;;2.80;;
5460;SDS011;2753;49.196;8.286;2023-05-20T03:06:08;3.80;;;2.33;;
5460;SDS011;2753;49.196;8.286;2023-05-20T03:08:35;3.37;;;2.63;;
5460;SDS011;2753;49.196;8.286;2023-05-20T03:11:01;5.77;;;2.70;;
5460;SDS011;2753;49.196;8.286;2023-05-20T03:13:27;4.23;;;2.63;;
5460;SDS011;2753;49.196;8.286;2023-05-20T03:15:53;2.77;;;2.43;;
5460;SDS011;2753;49.196;8.286;2023-05-20T03:18:19;2.80;;;2.40;;
5460;SDS011;2753;49.196;8.286;2023-05-20T03:20:45;3.10;;;2.83;;
5460;SDS011;2753;49.196;8.286;2023-05-20T03:23:11;3.17;;;2.50;;
5460;SDS011;2753;49.196;8.286;2023-05-20T03:25:37;4.90;;;3.87;;
5460;SDS011;2753;49.196;8.286;2023-05-20T03:28:03;2.50;;;2.00;;
5460;SDS011;2753;49.196;8.286;2023-05-20T03:30:30;5.47;;;2.30;;
5460;SDS011;2753;49.196;8.286;2023-05-20T03:32:57;3.20;;;2.90;;
5460;SDS011;2753;49.196;8.286;2023-05-20T03:35:23;3.80;;;2.60;;
5460;SDS011;2753;49.196;8.286;2023-05-20T03:37:50;4.80;;;2.50;;
5460;SDS011;2753;49.196;8.286;2023-05-20T03:40:17;7.03;;;2.43;;
5460;SDS011;2753;49.196;8.286;2023-05-20T03:42:45;4.97;;;2.87;;
5460;SDS011;2753;49.196;8.286;2023-05-20T03:45:11;5.93;;;2.30;;
5460;SDS011;2753;49.196;8.286;2023-05-20T03:47:37;3.53;;;2.60;;
5460;SDS011;2753;49.196;8.286;2023-05-20T03:50:03;3.83;;;2.70;;
5460;SDS011;2753;49.196;8.286;2023-05-20T03:52:29;3.33;;;2.80;;
5460;SDS011;2753;49.196;8.286;2023-05-20T03:54:55;9.67;;;2.90;;
5460;SDS011;2753;49.196;8.286;2023-05-20T03:57:22;2.93;;;2.50;;
5460;SDS011;2753;49.196;8.286;2023-05-20T03:59:47;5.10;;;2.87;;
5460;SDS011;2753;49.196;8.286;2023-05-20T04:02:13;9.13;;;2.93;;
5460;SDS011;2753;49.196;8.286;2023-05-20T04:04:39;8.60;;;3.20;;
5460;SDS011;2753;49.196;8.286;2023-05-20T04:07:07;4.33;;;2.90;;
5460;SDS011;2753;49.196;8.286;2023-05-20T04:09:33;2.90;;;2.70;;
5460;SDS011;2753;49.196;8.286;2023-05-20T04:11:59;2.50;;;2.30;;
5460;SDS011;2753;49.196;8.286;2023-05-20T04:14:25;3.33;;;2.50;;
5460;SDS011;2753;49.196;8.286;2023-05-20T04:16:51;6.83;;;3.23;;
5460;SDS011;2753;49.196;8.286;2023-05-20T04:19:17;8.13;;;3.27;;
5460;SDS011;2753;49.196;8.286;2023-05-20T04:21:44;3.30;;;2.83;;
5460;SDS011;2753;49.196;8.286;2023-05-20T04:24:10;3.83;;;2.80;;
5460;SDS011;2753;49.196;8.286;2023-05-20T04:26:37;4.00;;;2.90;;
5460;SDS011;2753;49.196;8.286;2023-05-20T04:29:03;7.70;;;3.03;;
5460;SDS011;2753;49.196;8.286;2023-05-20T04:31:29;3.10;;;2.90;;
5460;SDS011;2753;49.196;8.286;2023-05-20T04:33:56;4.00;;;2.50;;
5460;SDS011;2753;49.196;8.286;2023-05-20T04:36:22;3.33;;;2.80;;
5460;SDS011;2753;49.196;8.286;2023-05-20T04:38:52;3.70;;;3.20;;
5460;SDS011;2753;49.196;8.286;2023-05-20T04:41:19;4.60;;;3.00;;
5460;SDS011;2753;49.196;8.286;2023-05-20T04:43:44;10.63;;;3.40;;
5460;SDS011;2753;49.196;8.286;2023-05-20T04:46:10;5.83;;;2.53;;
5460;SDS011;2753;49.196;8.286;2023-05-20T04:48:36;8.67;;;3.57;;
5460;SDS011;2753;49.196;8.286;2023-05-20T04:51:02;5.10;;;2.80;;
5460;SDS011;2753;49.196;8.286;2023-05-20T04:53:28;5.83;;;3.07;;
5460;SDS011;2753;49.196;8.286;2023-05-20T04:55:57;10.60;;;2.90;;
5460;SDS011;2753;49.196;8.286;2023-05-20T04:58:23;14.00;;;4.30;;
5460;SDS011;2753;49.196;8.286;2023-05-20T05:00:49;2.63;;;2.53;;
5460;SDS011;2753;49.196;8.286;2023-05-20T05:03:16;5.73;;;3.37;;
5460;SDS011;2753;49.196;8.286;2023-05-20T05:05:42;4.23;;;2.80;;
5460;SDS011;2753;49.196;8.286;2023-05-20T05:08:08;3.63;;;2.87;;
5460;SDS011;2753;49.196;8.286;2023-05-20T05:10:35;11.23;;;2.70;;
5460;SDS011;2753;49.196;8.286;2023-05-20T05:13:01;5.80;;;2.70;;
5460;SDS011;2753;49.196;8.286;2023-05-20T05:15:27;4.00;;;3.30;;
5460;SDS011;2753;49.196;8.286;2023-05-20T05:17:54;4.97;;;3.60;;
5460;SDS011;2753;49.196;8.286;2023-05-20T05:20:20;6.53;;;3.90;;
5460;SDS011;2753;49.196;8.286;2023-05-20T05:22:45;4.10;;;3.00;;
5460;SDS011;2753;49.196;8.286;2023-05-20T05:25:11;5.07;;;3.10;;
5460;SDS011;2753;49.196;8.286;2023-05-20T05:27:37;6.93;;;3.83;;
5460;SDS011;2753;49.196;8.286;2023-05-20T05:30:04;5.60;;;3.17;;
5460;SDS011;2753;49.196;8.286;2023-05-20T05:32:31;3.20;;;2.90;;
5460;SDS011;2753;49.196;8.286;2023-05-20T05:34:58;4.20;;;3.80;;
5460;SDS011;2753;49.196;8.286;2023-05-20T05:37:24;5.63;;;3.70;;
5460;SDS011;2753;49.196;8.286;2023-05-20T05:39:50;10.87;;;3.17;;
5460;SDS011;2753;49.196;8.286;2023-05-20T05:42:16;4.30;;;3.30;;
5460;SDS011;2753;49.196;8.286;2023-05-20T05:44:43;6.07;;;2.83;;
5460;SDS011;2753;49.196;8.286;2023-05-20T05:50:32;4.03;;;2.90;;
5460;SDS011;2753;49.196;8.286;2023-05-20T05:52:58;10.20;;;3.87;;
5460;SDS011;2753;49.196;8.286;2023-05-20T05:55:25;7.70;;;3.63;;
5460;SDS011;2753;49.196;8.286;2023-05-20T05:57:51;4.03;;;3.60;;
5460;SDS011;2753;49.196;8.286;2023-05-20T06:00:17;3.27;;;2.93;;
5460;SDS011;2753;49.196;8.286;2023-05-20T06:02:43;6.57;;;3.63;;
5460;SDS011;2753;49.196;8.286;2023-05-20T06:05:10;7.40;;;3.10;;
5460;SDS011;2753;49.196;8.286;2023-05-20T06:07:35;11.93;;;3.43;;
5460;SDS011;2753;49.196;8.286;2023-05-20T06:10:01;7.20;;;3.30;;
5460;SDS011;2753;49.196;8.286;2023-05-20T06:12:27;3.93;;;3.63;;
5460;SDS011;2753;49.196;8.286;2023-05-20T06:14:53;4.77;;;3.80;;
5460;SDS011;2753;49.196;8.286;2023-05-20T06:17:18;3.67;;;3.27;;
5460;SDS011;2753;49.196;8.286;2023-05-20T06:19:47;5.40;;;3.23;;
5460;SDS011;2753;49.196;8.286;2023-05-20T06:22:12;5.50;;;3.40;;
5460;SDS011;2753;49.196;8.286;2023-05-20T06:24:38;6.13;;;3.80;;
5460;SDS011;2753;49.196;8.286;2023-05-20T06:27:04;6.33;;;3.60;;
5460;SDS011;2753;49.196;8.286;2023-05-20T06:29:30;6.73;;;3.83;;
5460;SDS011;2753;49.196;8.286;2023-05-20T06:31:56;6.57;;;4.10;;
5460;SDS011;2753;49.196;8.286;2023-05-20T06:34:22;4.03;;;3.00;;
5460;SDS011;2753;49.196;8.286;2023-05-20T06:36:48;7.17;;;4.07;;
5460;SDS011;2753;49.196;8.286;2023-05-20T06:39:13;5.50;;;4.37;;
5460;SDS011;2753;49.196;8.286;2023-05-20T06:41:39;6.63;;;3.57;;
5460;SDS011;2753;49.196;8.286;2023-05-20T06:44:05;6.57;;;4.17;;
5460;SDS011;2753;49.196;8.286;2023-05-20T06:46:33;6.20;;;4.33;;
5460;SDS011;2753;49.196;8.286;2023-05-20T06:49:00;8.90;;;3.10;;
5460;SDS011;2753;49.196;8.286;2023-05-20T06:51:26;5.03;;;3.43;;
5460;SDS011;2753;49.196;8.286;2023-05-20T06:53:52;4.17;;;3.77;;
5460;SDS011;2753;49.196;8.286;2023-05-20T06:56:19;6.23;;;3.07;;
5460;SDS011;2753;49.196;8.286;2023-05-20T06:58:45;5.80;;;3.40;;
5460;SDS011;2753;49.196;8.286;2023-05-20T07:01:17;4.57;;;4.07;;
5460;SDS011;2753;49.196;8.286;2023-05-20T07:03:44;4.37;;;3.70;;
5460;SDS011;2753;49.196;8.286;2023-05-20T07:06:10;6.57;;;3.77;;
5460;SDS011;2753;49.196;8.286;2023-05-20T07:08:36;13.93;;;3.80;;
5460;SDS011;2753;49.196;8.286;2023-05-20T07:11:02;3.90;;;3.60;;
5460;SDS011;2753;49.196;8.286;2023-05-20T07:13:28;6.17;;;4.00;;
5460;SDS011;2753;49.196;8.286;2023-05-20T07:15:54;5.77;;;3.70;;
5460;SDS011;2753;49.196;8.286;2023-05-20T07:18:20;6.47;;;4.83;;
5460;SDS011;2753;49.196;8.286;2023-05-20T07:20:46;4.03;;;3.63;;
5460;SDS011;2753;49.196;8.286;2023-05-20T07:23:12;6.50;;;4.07;;
5460;SDS011;2753;49.196;8.286;2023-05-20T07:25:38;6.63;;;4.23;;
5460;SDS011;2753;49.196;8.286;2023-05-20T07:28:03;7.27;;;3.73;;
5460;SDS011;2753;49.196;8.286;2023-05-20T07:30:30;3.97;;;3.67;;
5460;SDS011;2753;49.196;8.286;2023-05-20T07:32:55;8.90;;;3.27;;
5460;SDS011;2753;49.196;8.286;2023-05-20T07:35:21;3.93;;;3.43;;
5460;SDS011;2753;49.196;8.286;2023-05-20T07:37:48;4.40;;;3.00;;
5460;SDS011;2753;49.196;8.286;2023-05-20T07:40:14;8.80;;;3.70;;
5460;SDS011;2753;49.196;8.286;2023-05-20T07:42:39;4.43;;;4.03;;
5460;SDS011;2753;49.196;8.286;2023-05-20T07:45:05;8.30;;;4.27;;
5460;SDS011;2753;49.196;8.286;2023-05-20T07:47:31;5.40;;;3.90;;
5460;SDS011;2753;49.196;8.286;2023-05-20T07:49:57;5.00;;;3.60;;
5460;SDS011;2753;49.196;8.286;2023-05-20T07:52:23;4.93;;;3.80;;
5460;SDS011;2753;49.196;8.286;2023-05-20T07:54:50;4.33;;;3.77;;
5460;SDS011;2753;49.196;8.286;2023-05-20T07:57:16;6.33;;;4.37;;
5460;SDS011;2753;49.196;8.286;2023-05-20T07:59:42;6.60;;;4.60;;
5460;SDS011;2753;49.196;8.286;2023-05-20T08:02:07;4.57;;;4.17;;
5460;SDS011;2753;49.196;8.286;2023-05-20T08:04:33;3.67;;;3.37;;
5460;SDS011;2753;49.196;8.286;2023-05-20T08:07:01;6.40;;;4.30;;
5460;SDS011;2753;49.196;8.286;2023-05-20T08:09:27;7.57;;;4.77;;
5460;SDS011;2753;49.196;8.286;2023-05-20T08:11:53;7.87;;;3.60;;
5460;SDS011;2753;49.196;8.286;2023-05-20T08:14:18;7.63;;;4.30;;
5460;SDS011;2753;49.196;8.286;2023-05-20T08:16:44;4.63;;;4.20;;
5460;SDS011;2753;49.196;8.286;2023-05-20T08:19:12;6.90;;;4.97;;
5460;SDS011;2753;49.196;8.286;2023-05-20T08:21:37;4.00;;;3.70;;
5460;SDS011;2753;49.196;8.286;2023-05-20T08:24:03;6.53;;;4.30;;
5460;SDS011;2753;49.196;8.286;2023-05-20T08:26:29;6.67;;;4.63;;
5460;SDS011;2753;49.196;8.286;2023-05-20T08:28:55;6.07;;;4.90;;
5460;SDS011;2753;49.196;8.286;2023-05-20T08:31:21;4.97;;;4.47;;
5460;SDS011;2753;49.196;8.286;2023-05-20T08:33:46;6.77;;;4.67;;
5460;SDS011;2753;49.196;8.286;2023-05-20T08:36:12;6.73;;;4.10;;
5460;SDS011;2753;49.196;8.286;2023-05-20T08:38:38;5.37;;;4.40;;
5460;SDS011;2753;49.196;8.286;2023-05-20T08:41:04;5.70;;;4.27;;
5460;SDS011;2753;49.196;8.286;2023-05-20T08:43:30;22.03;;;4.53;;
5460;SDS011;2753;49.196;8.286;2023-05-20T08:45:56;16.43;;;4.40;;
5460;SDS011;2753;49.196;8.286;2023-05-20T08:48:24;5.90;;;4.00;;
5460;SDS011;2753;49.196;8.286;2023-05-20T08:50:51;7.97;;;4.60;;
5460;SDS011;2753;49.196;8.286;2023-05-20T08:53:21;6.33;;;4.57;;
5460;SDS011;2753;49.196;8.286;2023-05-20T08:55:58;6.90;;;4.73;;
5460;SDS011;2753;49.196;8.286;2023-05-20T08:58:27;5.93;;;4.40;;
5460;SDS011;2753;49.196;8.286;2023-05-20T09:00:53;7.20;;;5.40;;
5460;SDS011;2753;49.196;8.286;2023-05-20T09:03:20;7.67;;;5.43;;
5460;SDS011;2753;49.196;8.286;2023-05-20T09:05:46;7.80;;;4.90;;
5460;SDS011;2753;49.196;8.286;2023-05-20T09:08:12;5.40;;;4.90;;
5460;SDS011;2753;49.196;8.286;2023-05-20T09:10:38;7.03;;;4.13;;
5460;SDS011;2753;49.196;8.286;2023-05-20T09:13:06;4.63;;;4.10;;
5460;SDS011;2753;49.196;8.286;2023-05-20T09:15:33;5.33;;;4.43;;
5460;SDS011;2753;49.196;8.286;2023-05-20T09:17:59;7.70;;;5.20;;
5460;SDS011;2753;49.196;8.286;2023-05-20T09:20:26;4.90;;;4.40;;
5460;SDS011;2753;49.196;8.286;2023-05-20T09:22:53;4.70;;;4.10;;
5460;SDS011;2753;49.196;8.286;2023-05-20T09:25:24;18.70;;;4.40;;
5460;SDS011;2753;49.196;8.286;2023-05-20T09:27:50;4.40;;;4.00;;
5460;SDS011;2753;49.196;8.286;2023-05-20T09:30:20;5.10;;;4.40;;
5460;SDS011;2753;49.196;8.286;2023-05-20T09:32:56;6.50;;;4.57;;
5460;SDS011;2753;49.196;8.286;2023-05-20T09:35:23;6.13;;;4.70;;
5460;SDS011;2753;49.196;8.286;2023-05-20T09:37:51;13.73;;;4.50;;
5460;SDS011;2753;49.196;8.286;2023-05-20T09:40:25;5.73;;;5.23;;
5460;SDS011;2753;49.196;8.286;2023-05-20T09:42:53;7.17;;;4.80;;
5460;SDS011;2753;49.196;8.286;2023-05-20T09:45:23;5.27;;;4.77;;
5460;SDS011;2753;49.196;8.286;2023-05-20T09:47:49;9.33;;;5.10;;
5460;SDS011;2753;49.196;8.286;2023-05-20T09:50:16;4.90;;;4.53;;
5460;SDS011;2753;49.196;8.286;2023-05-20T09:52:45;5.87;;;4.67;;
5460;SDS011;2753;49.196;8.286;2023-05-20T09:55:13;4.37;;;4.03;;
5460;SDS011;2753;49.196;8.286;2023-05-20T09:57:41;7.10;;;4.33;;
5460;SDS011;2753;49.196;8.286;2023-05-20T10:00:07;4.73;;;3.93;;
5460;SDS011;2753;49.196;8.286;2023-05-20T10:02:34;6.87;;;4.37;;
5460;SDS011;2753;49.196;8.286;2023-05-20T10:05:02;6.87;;;4.30;;
5460;SDS011;2753;49.196;8.286;2023-05-20T10:16:47;13.07;;;4.83;;
5460;SDS011;2753;49.196;8.286;2023-05-20T10:19:03;7.30;;;4.87;;
5460;SDS011;2753;49.196;8.286;2023-05-20T10:21:31;7.60;;;4.73;;
5460;SDS011;2753;49.196;8.286;2023-05-20T10:24:07;6.50;;;4.30;;
5460;SDS011;2753;49.196;8.286;2023-05-20T10:26:37;7.60;;;5.50;;
5460;SDS011;2753;49.196;8.286;2023-05-20T10:29:27;5.73;;;4.47;;
5460;SDS011;2753;49.196;8.286;2023-05-20T10:31:51;5.90;;;4.97;;
5460;SDS011;2753;49.196;8.286;2023-05-20T10:34:18;9.37;;;4.10;;
5460;SDS011;2753;49.196;8.286;2023-05-20T10:37:06;5.10;;;4.63;;
5460;SDS011;2753;49.196;8.286;2023-05-20T10:39:31;5.27;;;4.87;;
5460;SDS011;2753;49.196;8.286;2023-05-20T10:42:05;6.30;;;5.50;;
5460;SDS011;2753;49.196;8.286;2023-05-20T10:47:06;5.83;;;4.80;;
5460;SDS011;2753;49.196;8.286;2023-05-20T10:49:33;4.73;;;4.30;;
5460;SDS011;2753;49.196;8.286;2023-05-20T10:52:00;7.27;;;4.53;;
5460;SDS011;2753;49.196;8.286;2023-05-20T10:54:26;24.80;;;6.47;;
5460;SDS011;2753;49.196;8.286;2023-05-20T10:56:53;14.80;;;4.67;;
5460;SDS011;2753;49.196;8.286;2023-05-20T10:59:19;5.00;;;4.60;;
5460;SDS011;2753;49.196;8.286;2023-05-20T11:01:49;8.63;;;4.90;;
5460;SDS011;2753;49.196;8.286;2023-05-20T11:04:15;35.47;;;8.20;;
5460;SDS011;2753;49.196;8.286;2023-05-20T11:06:48;6.27;;;4.90;;
5460;SDS011;2753;49.196;8.286;2023-05-20T11:09:15;6.30;;;5.70;;
5460;SDS011;2753;49.196;8.286;2023-05-20T11:11:43;6.27;;;5.03;;
5460;SDS011;2753;49.196;8.286;2023-05-20T11:14:09;6.67;;;5.00;;
5460;SDS011;2753;49.196;8.286;2023-05-20T11:16:38;7.27;;;4.20;;
5460;SDS011;2753;49.196;8.286;2023-05-20T11:19:13;10.13;;;4.70;;
5460;SDS011;2753;49.196;8.286;2023-05-20T11:21:44;8.90;;;5.07;;
5460;SDS011;2753;49.196;8.286;2023-05-20T11:24:10;12.03;;;4.80;;
5460;SDS011;2753;49.196;8.286;2023-05-20T11:26:37;6.57;;;5.30;;
5460;SDS011;2753;49.196;8.286;2023-05-20T11:29:03;5.27;;;4.70;;
5460;SDS011;2753;49.196;8.286;2023-05-20T11:31:32;7.03;;;4.93;;
5460;SDS011;2753;49.196;8.286;2023-05-20T11:33:58;4.53;;;4.13;;
5460;SDS011;2753;49.196;8.286;2023-05-20T11:36:28;5.67;;;5.17;;
5460;SDS011;2753;49.196;8.286;2023-05-20T11:38:56;5.47;;;4.57;;
5460;SDS011;2753;49.196;8.286;2023-05-20T11:41:27;7.87;;;4.57;;
5460;SDS011;2753;49.196;8.286;2023-05-20T11:43:57;5.73;;;4.50;;
5460;SDS011;2753;49.196;8.286;2023-05-20T11:46:25;5.63;;;4.47;;
5460;SDS011;2753;49.196;8.286;2023-05-20T11:48:55;6.80;;;5.00;;
5460;SDS011;2753;49.196;8.286;2023-05-20T11:51:22;4.40;;;4.00;;
5460;SDS011;2753;49.196;8.286;2023-05-20T11:53:49;5.30;;;4.00;;
5460;SDS011;2753;49.196;8.286;2023-05-20T11:56:15;5.37;;;4.07;;
5460;SDS011;2753;49.196;8.286;2023-05-20T11:58:42;5.27;;;4.00;;
5460;SDS011;2753;49.196;8.286;2023-05-20T12:01:08;4.53;;;4.10;;
5460;SDS011;2753;49.196;8.286;2023-05-20T12:03:34;5.13;;;4.37;;
5460;SDS011;2753;49.196;8.286;2023-05-20T12:06:01;4.70;;;4.30;;
5460;SDS011;2753;49.196;8.286;2023-05-20T12:08:28;4.93;;;4.53;;
5460;SDS011;2753;49.196;8.286;2023-05-20T12:10:54;4.93;;;4.50;;
5460;SDS011;2753;49.196;8.286;2023-05-20T12:13:20;5.23;;;4.80;;
5460;SDS011;2753;49.196;8.286;2023-05-20T12:15:53;4.80;;;4.50;;
5460;SDS011;2753;49.196;8.286;2023-05-20T12:18:18;6.00;;;5.03;;
5460;SDS011;2753;49.196;8.286;2023-05-20T12:20:44;4.97;;;4.60;;
5460;SDS011;2753;49.196;8.286;2023-05-20T12:23:10;4.80;;;4.40;;
5460;SDS011;2753;49.196;8.286;2023-05-20T12:25:35;7.67;;;4.23;;
5460;SDS011;2753;49.196;8.286;2023-05-20T12:28:01;6.80;;;5.10;;
5460;SDS011;2753;49.196;8.286;2023-05-20T12:35:39;5.00;;;4.60;;
5460;SDS011;2753;49.196;8.286;2023-05-20T12:38:11;6.93;;;5.90;;
5460;SDS011;2753;49.196;8.286;2023-05-20T12:40:38;6.73;;;4.67;;
5460;SDS011;2753;49.196;8.286;2023-05-20T12:50:49;6.30;;;4.20;;
5460;SDS011;2753;49.196;8.286;2023-05-20T12:53:17;5.90;;;4.80;;
5460;SDS011;2753;49.196;8.286;2023-05-20T12:55:42;7.40;;;5.53;;
5460;SDS011;2753;49.196;8.286;2023-05-20T12:58:08;11.80;;;5.37;;
5460;SDS011;2753;49.196;8.286;2023-05-20T13:00:34;5.40;;;4.90;;
5460;SDS011;2753;49.196;8.286;2023-05-20T13:03:00;8.00;;;5.30;;
5460;SDS011;2753;49.196;8.286;2023-05-20T13:05:26;8.37;;;4.90;;
5460;SDS011;2753;49.196;8.286;2023-05-20T13:07:52;5.07;;;4.53;;
5460;SDS011;2753;49.196;8.286;2023-05-20T13:10:18;6.80;;;5.53;;
5460;SDS011;2753;49.196;8.286;2023-05-20T13:12:44;8.93;;;4.70;;
5460;SDS011;2753;49.196;8.286;2023-05-20T13:15:13;6.57;;;4.80;;
5460;SDS011;2753;49.196;8.286;2023-05-20T13:17:40;9.03;;;5.23;;
5460;SDS011;2753;49.196;8.286;2023-05-20T13:20:09;6.27;;;5.70;;
5460;SDS011;2753;49.196;8.286;2023-05-20T13:22:35;6.30;;;5.20;;
5460;SDS011;2753;49.196;8.286;2023-05-20T13:25:02;5.33;;;4.93;;
5460;SDS011;2753;49.196;8.286;2023-05-20T13:27:28;5.90;;;5.30;;
5460;SDS011;2753;49.196;8.286;2023-05-20T13:29:54;9.53;;;5.60;;
5460;SDS011;2753;49.196;8.286;2023-05-20T13:32:20;6.03;;;5.33;;
5460;SDS011;2753;49.196;8.286;2023-05-20T13:34:45;5.83;;;5.20;;
5460;SDS011;2753;49.196;8.286;2023-05-20T13:37:11;4.97;;;4.47;;
5460;SDS011;2753;49.196;8.286;2023-05-20T13:39:37;6.33;;;5.27;;
5460;SDS011;2753;49.196;8.286;2023-05-20T13:42:03;6.63;;;4.47;;
5460;SDS011;2753;49.196;8.286;2023-05-20T13:44:29;6.63;;;5.60;;
5460;SDS011;2753;49.196;8.286;2023-05-20T13:46:55;5.60;;;5.07;;
5460;SDS011;2753;49.196;8.286;2023-05-20T13:49:20;6.80;;;4.80;;
5460;SDS011;2753;49.196;8.286;2023-05-20T13:51:46;6.53;;;5.20;;
5460;SDS011;2753;49.196;8.286;2023-05-20T13:54:12;6.93;;;5.00;;
5460;SDS011;2753;49.196;8.286;2023-05-20T13:56:38;5.60;;;5.10;;
5460;SDS011;2753;49.196;8.286;2023-05-20T13:59:04;5.10;;;4.80;;
5460;SDS011;2753;49.196;8.286;2023-05-20T14:01:30;6.30;;;4.97;;
5460;SDS011;2753;49.196;8.286;2023-05-20T14:03:58;8.60;;;5.50;;
5460;SDS011;2753;49.196;8.286;2023-05-20T14:06:25;5.00;;;4.60;;
5460;SDS011;2753;49.196;8.286;2023-05-20T14:08:55;8.20;;;5.43;;
5460;SDS011;2753;49.196;8.286;2023-05-20T14:11:21;8.37;;;5.33;;
5460;SDS011;2753;49.196;8.286;2023-05-20T14:13:47;5.63;;;5.13;;
5460;SDS011;2753;49.196;8.286;2023-05-20T14:16:13;4.90;;;4.40;;
5460;SDS011;2753;49.196;8.286;2023-05-20T14:18:39;7.13;;;5.03;;
5460;SDS011;2753;49.196;8.286;2023-05-20T14:21:05;7.50;;;4.57;;
5460;SDS011;2753;49.196;8.286;2023-05-20T14:23:31;5.47;;;4.97;;
5460;SDS011;2753;49.196;8.286;2023-05-20T14:25:57;8.23;;;4.90;;
5460;SDS011;2753;49.196;8.286;2023-05-20T14:28:23;5.67;;;5.10;;
5460;SDS011;2753;49.196;8.286;2023-05-20T14:30:49;11.10;;;4.47;;
5460;SDS011;2753;49.196;8.286;2023-05-20T14:33:14;6.50;;;5.37;;
5460;SDS011;2753;49.196;8.286;2023-05-20T14:35:40;5.70;;;5.20;;
5460;SDS011;2753;49.196;8.286;2023-05-20T14:38:08;5.47;;;5.03;;
5460;SDS011;2753;49.196;8.286;2023-05-20T14:40:35;6.27;;;5.63;;
5460;SDS011;2753;49.196;8.286;2023-05-20T14:43:01;7.73;;;4.83;;
5460;SDS011;2753;49.196;8.286;2023-05-20T14:45:26;5.10;;;4.60;;
5460;SDS011;2753;49.196;8.286;2023-05-20T14:47:57;12.47;;;5.20;;
5460;SDS011;2753;49.196;8.286;2023-05-20T14:50:22;8.73;;;5.70;;
5460;SDS011;2753;49.196;8.286;2023-05-20T14:52:48;6.63;;;5.43;;
5460;SDS011;2753;49.196;8.286;2023-05-20T14:55:13;6.50;;;5.07;;
5460;SDS011;2753;49.196;8.286;2023-05-20T14:57:39;5.60;;;5.10;;
5460;SDS011;2753;49.196;8.286;2023-05-20T15:00:06;7.73;;;5.23;;
5460;SDS011;2753;49.196;8.286;2023-05-20T15:02:32;5.90;;;5.20;;
5460;SDS011;2753;49.196;8.286;2023-05-20T15:04:58;5.60;;;5.10;;
5460;SDS011;2753;49.196;8.286;2023-05-20T15:07:24;6.10;;;5.53;;
5460;SDS011;2753;49.196;8.286;2023-05-20T15:09:50;6.60;;;5.40;;
5460;SDS011;2753;49.196;8.286;2023-05-20T15:12:16;5.53;;;5.03;;
5460;SDS011;2753;49.196;8.286;2023-05-20T15:14:42;5.70;;;5.27;;
5460;SDS011;2753;49.196;8.286;2023-05-20T15:17:07;6.70;;;5.60;;
5460;SDS011;2753;49.196;8.286;2023-05-20T15:19:33;8.80;;;5.40;;
5460;SDS011;2753;49.196;8.286;2023-05-20T15:22:00;8.00;;;5.70;;
5460;SDS011;2753;49.196;8.286;2023-05-20T15:24:25;8.70;;;5.40;;
5460;SDS011;2753;49.196;8.286;2023-05-20T15:26:51;5.47;;;5.00;;
5460;SDS011;2753;49.196;8.286;2023-05-20T15:29:18;7.77;;;5.77;;
5460;SDS011;2753;49.196;8.286;2023-05-20T15:31:44;9.37;;;6.50;;
5460;SDS011;2753;49.196;8.286;2023-05-20T15:34:10;8.40;;;5.27;;
5460;SDS011;2753;49.196;8.286;2023-05-20T15:36:36;5.67;;;5.00;;
5460;SDS011;2753;49.196;8.286;2023-05-20T15:39:03;7.10;;;5.50;;